ABY583 OMSJ-HECA
Flight info
| Callsign | ABY583 |
|---|---|
| Flight time | 3h 30m |
| Altitude | 32000 |
| Route | SENPA N571 ALPOB L768 VATIM L550 NIMAR/N0470F340 L550 NOVPA N697 MENLI L677 CVO |
| Aircraft | A320/M-SDE3FGHIRWY/LB1 |
Departure
| Time | 2026-04-28 21:30 |
|---|---|
| Airport | Sharjah International Airport (OMSJ) |
Arrival
| Time | 2026-04-29 01:00 |
|---|---|
| Airport | Cairo International Airport (HECA) |
| Time | Latitude | Longitude | Altitude | Speed | Heading |
|---|---|---|---|---|---|
| 2026-04-28 21:13 | 25.32252 | 55.52136 | 115 ft | 0 kts | 212° |
| 2026-04-28 21:21 | 25.32257 | 55.52139 | 115 ft | 2 kts | 212° |
| 2026-04-28 21:21 | 25.32272 | 55.52150 | 115 ft | 2 kts | 212° |
| 2026-04-28 21:21 | 25.32286 | 55.52160 | 115 ft | 2 kts | 212° |
| 2026-04-28 21:22 | 25.32301 | 55.52170 | 114 ft | 2 kts | 212° |
| 2026-04-28 21:22 | 25.32315 | 55.52181 | 115 ft | 2 kts | 212° |
| 2026-04-28 21:22 | 25.32323 | 55.52186 | 114 ft | 0 kts | 212° |
| 2026-04-28 21:23 | 25.32321 | 55.52170 | 113 ft | 4 kts | 281° |
| 2026-04-28 21:23 | 25.32356 | 55.52157 | 112 ft | 7 kts | 351° |
| 2026-04-28 21:23 | 25.32416 | 55.52144 | 114 ft | 10 kts | 334° |
| 2026-04-28 21:23 | 25.32459 | 55.52075 | 112 ft | 12 kts | 301° |
| 2026-04-28 21:24 | 25.32512 | 55.51986 | 113 ft | 15 kts | 303° |
| 2026-04-28 21:24 | 25.32566 | 55.51890 | 114 ft | 14 kts | 302° |
| 2026-04-28 21:24 | 25.32612 | 55.51809 | 113 ft | 11 kts | 302° |
| 2026-04-28 21:24 | 25.32654 | 55.51735 | 113 ft | 13 kts | 302° |
| 2026-04-28 21:25 | 25.32714 | 55.51632 | 113 ft | 19 kts | 303° |
| 2026-04-28 21:25 | 25.32796 | 55.51497 | 114 ft | 23 kts | 303° |
| 2026-04-28 21:25 | 25.32881 | 55.51343 | 115 ft | 24 kts | 300° |
| 2026-04-28 21:25 | 25.32967 | 55.51185 | 113 ft | 24 kts | 302° |
| 2026-04-28 21:26 | 25.33058 | 55.51027 | 112 ft | 25 kts | 302° |
| 2026-04-28 21:26 | 25.33152 | 55.50865 | 112 ft | 25 kts | 302° |
| 2026-04-28 21:26 | 25.33248 | 55.50699 | 111 ft | 26 kts | 302° |
| 2026-04-28 21:26 | 25.33345 | 55.50531 | 114 ft | 26 kts | 302° |
| 2026-04-28 21:27 | 25.33443 | 55.50361 | 115 ft | 26 kts | 302° |
| 2026-04-28 21:27 | 25.33542 | 55.50188 | 113 ft | 27 kts | 302° |
| 2026-04-28 21:27 | 25.33627 | 55.50039 | 115 ft | 16 kts | 302° |
| 2026-04-28 21:27 | 25.33680 | 55.49955 | 114 ft | 8 kts | 318° |
| 2026-04-28 21:28 | 25.33725 | 55.49958 | 114 ft | 6 kts | 33° |
| 2026-04-28 21:28 | 25.33773 | 55.49993 | 114 ft | 11 kts | 33° |
| 2026-04-28 21:28 | 25.33852 | 55.50050 | 116 ft | 16 kts | 33° |
| 2026-04-28 21:28 | 25.33953 | 55.50121 | 113 ft | 18 kts | 33° |
| 2026-04-28 21:29 | 25.34005 | 55.50192 | 112 ft | 11 kts | 111° |
| 2026-04-28 21:29 | 25.33970 | 55.50254 | 117 ft | 9 kts | 122° |
| 2026-04-28 21:29 | 25.33890 | 55.50394 | 116 ft | 49 kts | 122° |
| 2026-04-28 21:29 | 25.33583 | 55.50925 | 112 ft | 112 kts | 122° |
| 2026-04-28 21:30 | 25.33070 | 55.51819 | 118 ft | 160 kts | 122° |
| 2026-04-28 21:30 | 25.32419 | 55.52952 | 430 ft | 176 kts | 122° |
| 2026-04-28 21:30 | 25.31776 | 55.54067 | 1236 ft | 170 kts | 122° |
| 2026-04-28 21:30 | 25.31129 | 55.55181 | 1712 ft | 178 kts | 123° |
| 2026-04-28 21:31 | 25.30414 | 55.56369 | 1978 ft | 193 kts | 124° |
| 2026-04-28 21:31 | 25.29662 | 55.57671 | 2209 ft | 209 kts | 116° |
| 2026-04-28 21:31 | 25.29271 | 55.59245 | 2513 ft | 219 kts | 89° |
| 2026-04-28 21:31 | 25.29660 | 55.60874 | 2957 ft | 225 kts | 56° |
| 2026-04-28 21:32 | 25.30761 | 55.62062 | 3571 ft | 222 kts | 30° |
| 2026-04-28 21:32 | 25.32110 | 55.62866 | 4218 ft | 220 kts | 23° |
| 2026-04-28 21:32 | 25.33487 | 55.63608 | 4777 ft | 223 kts | 22° |
| 2026-04-28 21:32 | 25.34902 | 55.64367 | 5221 ft | 229 kts | 21° |
| 2026-04-28 21:33 | 25.36356 | 55.65149 | 5710 ft | 235 kts | 22° |
| 2026-04-28 21:33 | 25.37841 | 55.65941 | 6270 ft | 239 kts | 21° |
| 2026-04-28 21:33 | 25.39346 | 55.66733 | 6858 ft | 240 kts | 21° |
| 2026-04-28 21:33 | 25.40871 | 55.67523 | 7334 ft | 247 kts | 21° |
| 2026-04-28 21:34 | 25.42484 | 55.68330 | 7597 ft | 262 kts | 20° |
| 2026-04-28 21:34 | 25.44272 | 55.68864 | 7799 ft | 275 kts | 355° |
| 2026-04-28 21:34 | 25.46089 | 55.68255 | 8201 ft | 277 kts | 326° |
| 2026-04-28 21:34 | 25.47502 | 55.66793 | 8698 ft | 282 kts | 305° |
| 2026-04-28 21:35 | 25.48604 | 55.64973 | 9221 ft | 287 kts | 304° |
| 2026-04-28 21:35 | 25.49723 | 55.63135 | 9791 ft | 289 kts | 304° |
| 2026-04-28 21:35 | 25.50866 | 55.61288 | 10390 ft | 291 kts | 304° |
| 2026-04-28 21:35 | 25.52030 | 55.59449 | 11011 ft | 293 kts | 303° |
| 2026-04-28 21:36 | 25.53203 | 55.57602 | 11615 ft | 294 kts | 301° |
| 2026-04-28 21:36 | 25.54065 | 55.55571 | 12212 ft | 292 kts | 282° |
| 2026-04-28 21:36 | 25.54245 | 55.53348 | 12824 ft | 291 kts | 263° |
| 2026-04-28 21:36 | 25.53731 | 55.51195 | 13439 ft | 291 kts | 245° |
| 2026-04-28 21:37 | 25.52707 | 55.49250 | 14039 ft | 294 kts | 239° |
| 2026-04-28 21:37 | 25.51634 | 55.47324 | 14634 ft | 295 kts | 240° |
| 2026-04-28 21:37 | 25.50553 | 55.45382 | 15192 ft | 297 kts | 240° |
| 2026-04-28 21:37 | 25.49467 | 55.43426 | 15750 ft | 299 kts | 240° |
| 2026-04-28 21:38 | 25.48429 | 55.41421 | 16284 ft | 300 kts | 247° |
| 2026-04-28 21:38 | 25.47732 | 55.39211 | 16513 ft | 312 kts | 254° |
| 2026-04-28 21:38 | 25.47092 | 55.36854 | 16642 ft | 327 kts | 254° |
| 2026-04-28 21:38 | 25.46441 | 55.34427 | 16769 ft | 341 kts | 254° |
| 2026-04-28 21:39 | 25.45752 | 55.31856 | 16898 ft | 355 kts | 254° |
| 2026-04-28 21:39 | 25.45034 | 55.29193 | 17029 ft | 367 kts | 254° |
| 2026-04-28 21:39 | 25.44287 | 55.26443 | 17156 ft | 379 kts | 254° |
| 2026-04-28 21:39 | 25.43516 | 55.23619 | 17274 ft | 389 kts | 253° |
| 2026-04-28 21:40 | 25.42723 | 55.20722 | 17412 ft | 398 kts | 253° |
| 2026-04-28 21:40 | 25.41911 | 55.17759 | 17531 ft | 407 kts | 253° |
| 2026-04-28 21:40 | 25.41081 | 55.14731 | 17655 ft | 415 kts | 253° |
| 2026-04-28 21:40 | 25.40124 | 55.11708 | 17876 ft | 420 kts | 246° |
| 2026-04-28 21:41 | 25.38661 | 55.08896 | 18164 ft | 424 kts | 236° |
| 2026-04-28 21:41 | 25.36826 | 55.06332 | 18476 ft | 427 kts | 233° |
| 2026-04-28 21:41 | 25.34953 | 55.03771 | 18780 ft | 428 kts | 233° |
| 2026-04-28 21:41 | 25.33078 | 55.01209 | 19091 ft | 430 kts | 233° |
| 2026-04-28 21:42 | 25.31197 | 54.98632 | 19382 ft | 432 kts | 233° |
| 2026-04-28 21:42 | 25.29312 | 54.96042 | 19677 ft | 433 kts | 234° |
| 2026-04-28 21:42 | 25.27684 | 54.93251 | 19947 ft | 432 kts | 244° |
| 2026-04-28 21:42 | 25.26591 | 54.90168 | 20218 ft | 433 kts | 255° |
| 2026-04-28 21:43 | 25.26073 | 54.86899 | 20480 ft | 435 kts | 265° |
| 2026-04-28 21:43 | 25.26157 | 54.83556 | 20747 ft | 437 kts | 276° |
| 2026-04-28 21:43 | 25.26786 | 54.80256 | 20984 ft | 440 kts | 282° |
| 2026-04-28 21:43 | 25.27515 | 54.76962 | 21210 ft | 442 kts | 282° |
| 2026-04-28 21:44 | 25.28244 | 54.73665 | 21447 ft | 443 kts | 282° |
| 2026-04-28 21:44 | 25.28753 | 54.71482 | 21600 ft | 444 kts | 282° |
| 2026-04-28 21:44 | 25.29567 | 54.68179 | 21833 ft | 445 kts | 283° |
| 2026-04-28 21:44 | 25.30412 | 54.64892 | 22049 ft | 447 kts | 284° |
| 2026-04-28 21:45 | 25.31277 | 54.61585 | 22266 ft | 448 kts | 284° |
| 2026-04-28 21:45 | 25.32144 | 54.58269 | 22479 ft | 449 kts | 283° |
| 2026-04-28 21:45 | 25.32999 | 54.54945 | 22699 ft | 450 kts | 283° |
| 2026-04-28 21:45 | 25.33849 | 54.51615 | 22903 ft | 451 kts | 283° |
| 2026-04-28 21:46 | 25.34714 | 54.48279 | 23124 ft | 452 kts | 283° |
| 2026-04-28 21:46 | 25.35583 | 54.44938 | 23326 ft | 453 kts | 283° |
| 2026-04-28 21:46 | 25.36458 | 54.41591 | 23532 ft | 453 kts | 283° |
| 2026-04-28 21:46 | 25.37333 | 54.38247 | 23822 ft | 452 kts | 283° |
| 2026-04-28 21:47 | 25.38206 | 54.34922 | 24162 ft | 450 kts | 283° |
| 2026-04-28 21:47 | 25.39081 | 54.31604 | 24471 ft | 448 kts | 283° |
| 2026-04-28 21:47 | 25.39875 | 54.28608 | 24767 ft | 447 kts | 283° |
| 2026-04-28 21:47 | 25.40727 | 54.25395 | 25085 ft | 445 kts | 283° |
| 2026-04-28 21:48 | 25.41597 | 54.22120 | 25412 ft | 443 kts | 283° |
| 2026-04-28 21:48 | 25.42465 | 54.18859 | 25747 ft | 441 kts | 283° |
| 2026-04-28 21:48 | 25.43328 | 54.15615 | 26077 ft | 439 kts | 283° |
| 2026-04-28 21:48 | 25.44189 | 54.12383 | 26392 ft | 437 kts | 283° |
| 2026-04-28 21:49 | 25.45049 | 54.09164 | 26721 ft | 435 kts | 283° |
| 2026-04-28 21:49 | 25.45897 | 54.06009 | 27037 ft | 434 kts | 283° |
| 2026-04-28 21:49 | 25.46755 | 54.02824 | 27362 ft | 432 kts | 283° |
| 2026-04-28 21:49 | 25.47611 | 53.99643 | 27686 ft | 430 kts | 283° |
| 2026-04-28 21:50 | 25.48463 | 53.96483 | 28015 ft | 428 kts | 283° |
| 2026-04-28 21:50 | 25.49317 | 53.93333 | 28327 ft | 426 kts | 283° |
| 2026-04-28 21:50 | 25.50169 | 53.90200 | 28652 ft | 424 kts | 283° |
| 2026-04-28 21:50 | 25.51017 | 53.87085 | 28966 ft | 422 kts | 283° |
| 2026-04-28 21:51 | 25.51861 | 53.83982 | 29266 ft | 420 kts | 283° |
| 2026-04-28 21:51 | 25.52703 | 53.80886 | 29550 ft | 419 kts | 283° |
| 2026-04-28 21:51 | 25.53544 | 53.77805 | 29833 ft | 417 kts | 283° |
| 2026-04-28 21:51 | 25.54381 | 53.74736 | 30133 ft | 416 kts | 283° |
| 2026-04-28 21:52 | 25.55216 | 53.71673 | 30414 ft | 414 kts | 283° |
| 2026-04-28 21:52 | 25.56046 | 53.68624 | 30660 ft | 414 kts | 283° |
| 2026-04-28 21:52 | 25.56872 | 53.65577 | 30901 ft | 413 kts | 283° |
| 2026-04-28 21:52 | 25.57698 | 53.62526 | 31127 ft | 413 kts | 283° |
| 2026-04-28 21:53 | 25.58521 | 53.59477 | 31329 ft | 413 kts | 284° |
| 2026-04-28 21:53 | 25.59339 | 53.56430 | 31539 ft | 413 kts | 283° |
| 2026-04-28 21:53 | 25.60154 | 53.53383 | 31759 ft | 413 kts | 283° |
| 2026-04-28 21:53 | 25.60968 | 53.50331 | 31956 ft | 413 kts | 283° |
| 2026-04-28 21:54 | 25.62598 | 53.44226 | 32037 ft | 414 kts | 283° |
| 2026-04-28 21:54 | 25.64229 | 53.38121 | 32037 ft | 413 kts | 283° |
| 2026-04-28 21:55 | 25.65850 | 53.32055 | 32037 ft | 413 kts | 283° |
| 2026-04-28 21:55 | 25.67478 | 53.25960 | 32037 ft | 413 kts | 284° |
| 2026-04-28 21:56 | 25.69112 | 53.19851 | 32036 ft | 413 kts | 283° |
| 2026-04-28 21:56 | 25.70744 | 53.13751 | 32036 ft | 413 kts | 283° |
| 2026-04-28 21:57 | 25.72380 | 53.07647 | 32035 ft | 413 kts | 283° |
| 2026-04-28 21:57 | 25.74014 | 53.01548 | 32032 ft | 413 kts | 283° |
| 2026-04-28 21:58 | 25.75669 | 52.95444 | 32030 ft | 413 kts | 284° |
| 2026-04-28 21:58 | 25.77327 | 52.89333 | 32032 ft | 414 kts | 284° |
| 2026-04-28 21:59 | 25.78991 | 52.83223 | 32036 ft | 414 kts | 284° |
| 2026-04-28 22:00 | 25.81500 | 52.74068 | 32037 ft | 413 kts | 284° |
| 2026-04-28 22:00 | 25.83176 | 52.67963 | 32036 ft | 414 kts | 284° |
| 2026-04-28 22:01 | 25.84864 | 52.61860 | 32034 ft | 413 kts | 284° |
| 2026-04-28 22:01 | 25.86558 | 52.55760 | 32033 ft | 414 kts | 284° |
| 2026-04-28 22:02 | 25.88254 | 52.49666 | 32029 ft | 413 kts | 284° |
| 2026-04-28 22:02 | 25.89970 | 52.43574 | 32021 ft | 413 kts | 284° |
| 2026-04-28 22:03 | 25.91686 | 52.37488 | 32013 ft | 413 kts | 284° |
| 2026-04-28 22:03 | 25.93393 | 52.31454 | 32012 ft | 412 kts | 284° |
| 2026-04-28 22:04 | 25.95121 | 52.25383 | 32010 ft | 412 kts | 284° |
| 2026-04-28 22:04 | 25.96859 | 52.19316 | 32008 ft | 412 kts | 284° |
| 2026-04-28 22:05 | 25.98604 | 52.13248 | 32010 ft | 412 kts | 284° |
| 2026-04-28 22:05 | 26.00347 | 52.07183 | 32011 ft | 412 kts | 284° |
| 2026-04-28 22:06 | 26.02090 | 52.01120 | 32010 ft | 411 kts | 284° |
| 2026-04-28 22:06 | 26.03834 | 51.95062 | 32007 ft | 411 kts | 284° |
| 2026-04-28 22:07 | 26.05579 | 51.89008 | 32007 ft | 411 kts | 284° |
| 2026-04-28 22:07 | 26.07326 | 51.82950 | 32007 ft | 411 kts | 284° |
| 2026-04-28 22:08 | 26.09072 | 51.76893 | 32006 ft | 411 kts | 284° |
| 2026-04-28 22:08 | 26.10819 | 51.70838 | 32006 ft | 411 kts | 284° |
| 2026-04-28 22:09 | 26.12570 | 51.64779 | 32009 ft | 411 kts | 284° |
| 2026-04-28 22:09 | 26.14322 | 51.58735 | 32008 ft | 410 kts | 284° |
| 2026-04-28 22:10 | 26.16088 | 51.52690 | 32004 ft | 411 kts | 284° |
| 2026-04-28 22:10 | 26.17857 | 51.46646 | 32002 ft | 411 kts | 284° |
| 2026-04-28 22:11 | 26.19636 | 51.40603 | 32006 ft | 410 kts | 284° |
| 2026-04-28 22:11 | 26.21397 | 51.34611 | 32008 ft | 410 kts | 284° |
| 2026-04-28 22:12 | 26.23173 | 51.28583 | 32008 ft | 409 kts | 284° |
| 2026-04-28 22:12 | 26.24957 | 51.22566 | 32006 ft | 409 kts | 284° |
| 2026-04-28 22:13 | 26.26753 | 51.16553 | 32006 ft | 409 kts | 284° |
| 2026-04-28 22:13 | 26.28555 | 51.10539 | 32008 ft | 409 kts | 284° |
| 2026-04-28 22:14 | 26.30358 | 51.04528 | 32009 ft | 409 kts | 284° |
| 2026-04-28 22:14 | 26.32164 | 50.98521 | 32009 ft | 409 kts | 284° |
| 2026-04-28 22:15 | 26.33988 | 50.92522 | 32009 ft | 408 kts | 284° |
| 2026-04-28 22:15 | 26.35812 | 50.86531 | 32007 ft | 408 kts | 284° |
| 2026-04-28 22:16 | 26.37636 | 50.80545 | 32004 ft | 408 kts | 284° |
| 2026-04-28 22:16 | 26.39463 | 50.74556 | 32002 ft | 408 kts | 284° |
| 2026-04-28 22:17 | 26.41278 | 50.68609 | 32001 ft | 408 kts | 284° |
| 2026-04-28 22:17 | 26.43107 | 50.62618 | 32000 ft | 408 kts | 284° |
| 2026-04-28 22:18 | 26.44935 | 50.56629 | 31998 ft | 408 kts | 284° |
| 2026-04-28 22:18 | 26.46765 | 50.50643 | 31993 ft | 408 kts | 284° |
| 2026-04-28 22:19 | 26.48596 | 50.44656 | 31995 ft | 408 kts | 284° |
| 2026-04-28 22:19 | 26.50429 | 50.38663 | 31988 ft | 408 kts | 284° |
| 2026-04-28 22:20 | 26.52260 | 50.32678 | 31986 ft | 408 kts | 284° |
| 2026-04-28 22:20 | 26.54094 | 50.26684 | 31984 ft | 408 kts | 284° |
| 2026-04-28 22:21 | 26.55929 | 50.20690 | 31985 ft | 408 kts | 284° |
| 2026-04-28 22:21 | 26.57765 | 50.14697 | 31986 ft | 408 kts | 284° |
| 2026-04-28 22:22 | 26.59602 | 50.08701 | 31982 ft | 408 kts | 284° |
| 2026-04-28 22:22 | 26.61452 | 50.02710 | 31986 ft | 408 kts | 284° |
| 2026-04-28 22:23 | 26.63307 | 49.96717 | 31988 ft | 408 kts | 284° |
| 2026-04-28 22:23 | 26.65155 | 49.90770 | 31985 ft | 408 kts | 284° |
| 2026-04-28 22:24 | 26.67023 | 49.84789 | 31988 ft | 408 kts | 284° |
| 2026-04-28 22:24 | 26.68904 | 49.78806 | 31987 ft | 408 kts | 284° |
| 2026-04-28 22:25 | 26.70790 | 49.72821 | 31993 ft | 408 kts | 284° |
| 2026-04-28 22:25 | 26.72676 | 49.66839 | 31997 ft | 408 kts | 284° |
| 2026-04-28 22:26 | 26.74576 | 49.60858 | 31997 ft | 408 kts | 284° |
| 2026-04-28 22:26 | 26.76483 | 49.54875 | 31999 ft | 408 kts | 284° |
| 2026-04-28 22:27 | 26.78395 | 49.48896 | 32001 ft | 408 kts | 284° |
| 2026-04-28 22:27 | 26.80307 | 49.42928 | 32001 ft | 407 kts | 284° |
| 2026-04-28 22:28 | 26.82224 | 49.36965 | 32005 ft | 407 kts | 284° |
| 2026-04-28 22:28 | 26.84141 | 49.31009 | 32006 ft | 407 kts | 284° |
| 2026-04-28 22:29 | 26.86064 | 49.25055 | 32006 ft | 407 kts | 284° |
| 2026-04-28 22:29 | 26.88007 | 49.19103 | 32007 ft | 407 kts | 284° |
| 2026-04-28 22:30 | 26.89936 | 49.13192 | 32011 ft | 407 kts | 284° |
| 2026-04-28 22:30 | 26.91881 | 49.07242 | 32015 ft | 407 kts | 284° |
| 2026-04-28 22:31 | 26.93833 | 49.01289 | 32019 ft | 407 kts | 284° |
| 2026-04-28 22:31 | 26.95788 | 48.95340 | 32023 ft | 406 kts | 284° |
| 2026-04-28 22:32 | 26.97744 | 48.89397 | 32026 ft | 406 kts | 284° |
| 2026-04-28 22:32 | 26.99710 | 48.83458 | 32025 ft | 406 kts | 284° |
| 2026-04-28 22:33 | 27.01682 | 48.77518 | 32021 ft | 407 kts | 284° |
| 2026-04-28 22:33 | 27.03655 | 48.71574 | 32019 ft | 407 kts | 284° |
| 2026-04-28 22:34 | 27.05632 | 48.65636 | 32020 ft | 406 kts | 284° |
| 2026-04-28 22:34 | 27.07612 | 48.59700 | 32023 ft | 406 kts | 284° |
| 2026-04-28 22:35 | 27.09595 | 48.53764 | 32026 ft | 406 kts | 284° |
| 2026-04-28 22:35 | 27.11588 | 48.47836 | 32029 ft | 406 kts | 284° |
| 2026-04-28 22:36 | 27.13254 | 48.42912 | 32027 ft | 406 kts | 284° |
| 2026-04-28 22:36 | 27.15260 | 48.36989 | 32028 ft | 406 kts | 284° |
| 2026-04-28 22:37 | 27.17269 | 48.31057 | 32029 ft | 406 kts | 284° |
| 2026-04-28 22:37 | 27.19283 | 48.25131 | 32035 ft | 406 kts | 284° |
| 2026-04-28 22:38 | 27.21298 | 48.19214 | 32038 ft | 406 kts | 284° |
| 2026-04-28 22:38 | 27.23321 | 48.13297 | 32043 ft | 405 kts | 284° |
| 2026-04-28 22:39 | 27.25345 | 48.07390 | 32044 ft | 405 kts | 284° |
| 2026-04-28 22:39 | 27.27385 | 48.01486 | 32040 ft | 405 kts | 284° |
| 2026-04-28 22:40 | 27.29429 | 47.95585 | 32038 ft | 405 kts | 284° |
| 2026-04-28 22:40 | 27.31478 | 47.89689 | 32046 ft | 405 kts | 284° |
| 2026-04-28 22:41 | 27.33530 | 47.83793 | 32054 ft | 405 kts | 284° |
| 2026-04-28 22:41 | 27.35583 | 47.77898 | 32060 ft | 405 kts | 284° |
| 2026-04-28 22:42 | 27.37650 | 47.72006 | 32064 ft | 405 kts | 284° |
| 2026-04-28 22:42 | 27.39725 | 47.66120 | 32069 ft | 405 kts | 284° |
| 2026-04-28 22:43 | 27.41789 | 47.60268 | 32070 ft | 405 kts | 284° |
| 2026-04-28 22:43 | 27.43865 | 47.54382 | 32072 ft | 405 kts | 284° |
| 2026-04-28 22:44 | 27.45943 | 47.48494 | 32074 ft | 405 kts | 284° |
| 2026-04-28 22:44 | 27.48025 | 47.42605 | 32075 ft | 405 kts | 284° |
| 2026-04-28 22:45 | 27.50108 | 47.36715 | 32077 ft | 405 kts | 284° |
| 2026-04-28 22:45 | 27.52194 | 47.30820 | 32081 ft | 405 kts | 284° |
| 2026-04-28 22:46 | 27.54278 | 47.24926 | 32083 ft | 405 kts | 284° |
| 2026-04-28 22:46 | 27.56356 | 47.19034 | 32082 ft | 405 kts | 284° |
| 2026-04-28 22:47 | 27.58439 | 47.13143 | 32084 ft | 405 kts | 284° |
| 2026-04-28 22:47 | 27.60524 | 47.07255 | 32085 ft | 404 kts | 284° |
| 2026-04-28 22:48 | 27.62609 | 47.01366 | 32086 ft | 404 kts | 284° |
| 2026-04-28 22:48 | 27.64690 | 46.95476 | 32086 ft | 404 kts | 284° |
| 2026-04-28 22:49 | 27.66743 | 46.89567 | 32073 ft | 405 kts | 283° |
| 2026-04-28 22:49 | 27.68620 | 46.83600 | 32069 ft | 408 kts | 282° |
| 2026-04-28 22:50 | 27.70480 | 46.77491 | 32071 ft | 410 kts | 282° |
| 2026-04-28 22:50 | 27.71399 | 46.74474 | 31951 ft | 413 kts | 282° |
| 2026-04-28 22:50 | 27.72342 | 46.71408 | 31891 ft | 414 kts | 282° |
| 2026-04-28 22:51 | 27.74256 | 46.65272 | 31914 ft | 415 kts | 283° |
| 2026-04-28 22:51 | 27.76172 | 46.59133 | 31918 ft | 414 kts | 282° |
| 2026-04-28 22:52 | 27.78081 | 46.52995 | 31918 ft | 415 kts | 282° |
| 2026-04-28 22:52 | 27.79981 | 46.46843 | 31916 ft | 415 kts | 282° |
| 2026-04-28 22:53 | 27.81880 | 46.40695 | 31913 ft | 415 kts | 282° |
| 2026-04-28 22:53 | 27.83781 | 46.34546 | 31911 ft | 414 kts | 282° |
| 2026-04-28 22:54 | 27.85675 | 46.28399 | 31911 ft | 414 kts | 282° |
| 2026-04-28 22:54 | 27.87567 | 46.22248 | 31909 ft | 415 kts | 282° |
| 2026-04-28 22:55 | 27.89449 | 46.16088 | 31908 ft | 415 kts | 282° |
| 2026-04-28 22:55 | 27.91334 | 46.09928 | 31908 ft | 415 kts | 282° |
| 2026-04-28 22:56 | 27.93229 | 46.03771 | 31914 ft | 414 kts | 282° |
| 2026-04-28 22:56 | 27.95110 | 45.97615 | 31912 ft | 414 kts | 282° |
| 2026-04-28 22:57 | 27.96982 | 45.91462 | 31913 ft | 414 kts | 282° |
| 2026-04-28 22:57 | 27.98851 | 45.85312 | 31912 ft | 413 kts | 282° |
| 2026-04-28 22:58 | 28.00716 | 45.79155 | 31913 ft | 413 kts | 282° |
| 2026-04-28 22:58 | 28.02569 | 45.73043 | 31914 ft | 414 kts | 282° |
| 2026-04-28 22:59 | 28.04433 | 45.66883 | 31915 ft | 414 kts | 282° |
| 2026-04-28 22:59 | 28.06299 | 45.60717 | 31917 ft | 414 kts | 282° |
| 2026-04-28 23:00 | 28.08156 | 45.54554 | 31915 ft | 414 kts | 282° |
| 2026-04-28 23:00 | 28.10006 | 45.48387 | 31915 ft | 414 kts | 282° |
| 2026-04-28 23:01 | 28.11855 | 45.42212 | 31912 ft | 414 kts | 282° |
| 2026-04-28 23:01 | 28.13704 | 45.36041 | 31918 ft | 414 kts | 282° |
| 2026-04-28 23:02 | 28.15556 | 45.29875 | 31913 ft | 414 kts | 282° |
| 2026-04-28 23:02 | 28.17404 | 45.23703 | 31914 ft | 414 kts | 282° |
| 2026-04-28 23:03 | 28.19246 | 45.17524 | 31917 ft | 414 kts | 281° |
| 2026-04-28 23:03 | 28.21083 | 45.11337 | 31916 ft | 414 kts | 281° |
| 2026-04-28 23:04 | 28.22922 | 45.05149 | 31913 ft | 414 kts | 281° |
| 2026-04-28 23:04 | 28.25663 | 44.95906 | 31922 ft | 414 kts | 281° |
| 2026-04-28 23:05 | 28.27505 | 44.89673 | 31918 ft | 414 kts | 281° |
| 2026-04-28 23:05 | 28.29318 | 44.83524 | 31916 ft | 414 kts | 281° |
| 2026-04-28 23:06 | 28.31139 | 44.77327 | 31919 ft | 413 kts | 281° |
| 2026-04-28 23:06 | 28.32961 | 44.71141 | 31916 ft | 414 kts | 281° |
| 2026-04-28 23:07 | 28.34784 | 44.64945 | 31920 ft | 414 kts | 281° |
| 2026-04-28 23:07 | 28.36600 | 44.58751 | 31911 ft | 414 kts | 281° |
| 2026-04-28 23:08 | 28.38412 | 44.52553 | 31919 ft | 413 kts | 281° |
| 2026-04-28 23:08 | 28.40216 | 44.46356 | 31915 ft | 414 kts | 281° |
| 2026-04-28 23:09 | 28.42017 | 44.40147 | 31918 ft | 413 kts | 281° |
| 2026-04-28 23:09 | 28.43822 | 44.33945 | 31919 ft | 414 kts | 281° |
| 2026-04-28 23:10 | 28.45625 | 44.27736 | 31922 ft | 414 kts | 281° |
| 2026-04-28 23:10 | 28.47421 | 44.21523 | 31921 ft | 414 kts | 281° |
| 2026-04-28 23:11 | 28.49217 | 44.15315 | 31913 ft | 413 kts | 281° |
| 2026-04-28 23:11 | 28.51006 | 44.09106 | 31919 ft | 413 kts | 281° |
| 2026-04-28 23:12 | 28.52790 | 44.02897 | 31922 ft | 413 kts | 281° |
| 2026-04-28 23:12 | 28.54572 | 43.96687 | 31917 ft | 413 kts | 281° |
| 2026-04-28 23:13 | 28.56353 | 43.90475 | 31918 ft | 413 kts | 281° |
| 2026-04-28 23:13 | 28.58138 | 43.84258 | 31925 ft | 413 kts | 281° |
| 2026-04-28 23:14 | 28.59910 | 43.78041 | 31922 ft | 413 kts | 281° |
| 2026-04-28 23:14 | 28.61683 | 43.71813 | 31917 ft | 414 kts | 281° |
| 2026-04-28 23:15 | 28.63459 | 43.65580 | 31918 ft | 414 kts | 281° |
| 2026-04-28 23:15 | 28.65223 | 43.59392 | 31911 ft | 414 kts | 281° |
| 2026-04-28 23:16 | 28.66998 | 43.53147 | 31917 ft | 415 kts | 281° |
| 2026-04-28 23:16 | 28.68766 | 43.46893 | 31920 ft | 415 kts | 281° |
| 2026-04-28 23:17 | 28.70529 | 43.40636 | 31924 ft | 415 kts | 281° |
| 2026-04-28 23:17 | 28.72289 | 43.34380 | 31919 ft | 415 kts | 281° |
| 2026-04-28 23:18 | 28.74056 | 43.28120 | 31925 ft | 415 kts | 281° |
| 2026-04-28 23:18 | 28.75817 | 43.21858 | 31919 ft | 415 kts | 281° |
| 2026-04-28 23:19 | 28.77572 | 43.15588 | 31924 ft | 415 kts | 281° |
| 2026-04-28 23:19 | 28.79327 | 43.09313 | 31930 ft | 415 kts | 281° |
| 2026-04-28 23:20 | 28.81075 | 43.03036 | 31923 ft | 415 kts | 281° |
| 2026-04-28 23:20 | 28.82822 | 42.96756 | 31926 ft | 416 kts | 281° |
| 2026-04-28 23:21 | 28.84569 | 42.90473 | 31932 ft | 416 kts | 281° |
| 2026-04-28 23:21 | 28.86308 | 42.84183 | 31933 ft | 415 kts | 281° |
| 2026-04-28 23:22 | 28.87752 | 42.78959 | 31933 ft | 415 kts | 281° |
| 2026-04-28 23:22 | 28.89777 | 42.71648 | 31928 ft | 416 kts | 281° |
| 2026-04-28 23:23 | 28.91514 | 42.65356 | 31928 ft | 415 kts | 281° |
| 2026-04-28 23:23 | 28.93249 | 42.59065 | 31932 ft | 416 kts | 281° |
| 2026-04-28 23:24 | 28.94972 | 42.52770 | 31930 ft | 416 kts | 281° |
| 2026-04-28 23:24 | 28.96687 | 42.46472 | 31938 ft | 416 kts | 281° |
| 2026-04-28 23:25 | 28.98415 | 42.40167 | 31935 ft | 416 kts | 281° |
| 2026-04-28 23:25 | 29.00147 | 42.33857 | 31936 ft | 416 kts | 281° |
| 2026-04-28 23:26 | 29.01870 | 42.27537 | 31936 ft | 417 kts | 281° |
| 2026-04-28 23:26 | 29.03295 | 42.22279 | 31944 ft | 417 kts | 281° |
| 2026-04-28 23:27 | 29.04480 | 42.15885 | 31942 ft | 407 kts | 269° |
| 2026-04-28 23:27 | 29.04865 | 42.09432 | 31942 ft | 407 kts | 269° |
| 2026-04-28 23:28 | 29.05254 | 42.02969 | 31946 ft | 408 kts | 269° |
| 2026-04-28 23:28 | 29.05644 | 41.96508 | 31949 ft | 408 kts | 269° |
| 2026-04-28 23:29 | 29.06031 | 41.90030 | 31955 ft | 409 kts | 269° |
| 2026-04-28 23:29 | 29.06411 | 41.83547 | 31958 ft | 409 kts | 269° |
| 2026-04-28 23:30 | 29.06791 | 41.77050 | 31964 ft | 410 kts | 269° |
| 2026-04-28 23:30 | 29.07170 | 41.70554 | 31970 ft | 410 kts | 269° |
| 2026-04-28 23:31 | 29.07546 | 41.64059 | 31974 ft | 410 kts | 269° |
| 2026-04-28 23:31 | 29.07918 | 41.57560 | 31979 ft | 410 kts | 269° |
| 2026-04-28 23:32 | 29.08289 | 41.51061 | 31985 ft | 410 kts | 269° |
| 2026-04-28 23:32 | 29.08652 | 41.44563 | 31989 ft | 410 kts | 269° |
| 2026-04-28 23:33 | 29.09013 | 41.38109 | 31993 ft | 409 kts | 269° |
| 2026-04-28 23:33 | 29.09379 | 41.31610 | 31987 ft | 410 kts | 269° |
| 2026-04-28 23:34 | 29.09746 | 41.25115 | 31987 ft | 409 kts | 269° |
| 2026-04-28 23:34 | 29.10101 | 41.18626 | 31987 ft | 409 kts | 269° |
| 2026-04-28 23:35 | 29.10450 | 41.12135 | 31992 ft | 409 kts | 269° |
| 2026-04-28 23:35 | 29.10803 | 41.05633 | 31991 ft | 410 kts | 269° |
| 2026-04-28 23:36 | 29.11154 | 40.99126 | 31999 ft | 410 kts | 269° |
| 2026-04-28 23:36 | 29.11497 | 40.92618 | 32000 ft | 409 kts | 269° |
| 2026-04-28 23:37 | 29.11835 | 40.86122 | 32001 ft | 409 kts | 269° |
| 2026-04-28 23:37 | 29.12171 | 40.79624 | 31999 ft | 409 kts | 269° |
| 2026-04-28 23:38 | 29.12498 | 40.73173 | 31995 ft | 409 kts | 269° |
| 2026-04-28 23:38 | 29.12825 | 40.66675 | 31998 ft | 409 kts | 269° |
| 2026-04-28 23:39 | 29.13159 | 40.60170 | 32001 ft | 410 kts | 269° |
| 2026-04-28 23:39 | 29.13147 | 40.53674 | 32004 ft | 408 kts | 264° |
| 2026-04-28 23:40 | 29.12934 | 40.47199 | 32005 ft | 408 kts | 264° |
| 2026-04-28 23:40 | 29.12721 | 40.40718 | 32005 ft | 408 kts | 264° |
| 2026-04-28 23:41 | 29.12511 | 40.34242 | 32006 ft | 407 kts | 264° |
| 2026-04-28 23:41 | 29.12294 | 40.27767 | 32006 ft | 407 kts | 264° |
| 2026-04-28 23:42 | 29.12068 | 40.21298 | 32004 ft | 407 kts | 264° |
| 2026-04-28 23:42 | 29.11835 | 40.14822 | 32005 ft | 407 kts | 264° |
| 2026-04-28 23:43 | 29.11608 | 40.08353 | 32002 ft | 407 kts | 264° |
| 2026-04-28 23:43 | 29.11376 | 40.01885 | 32006 ft | 407 kts | 264° |
| 2026-04-28 23:44 | 29.11142 | 39.95414 | 32010 ft | 407 kts | 264° |
| 2026-04-28 23:44 | 29.10926 | 39.88982 | 32011 ft | 408 kts | 265° |
| 2026-04-28 23:45 | 29.10923 | 39.82454 | 32011 ft | 408 kts | 267° |
| 2026-04-28 23:45 | 29.11012 | 39.75997 | 32010 ft | 409 kts | 267° |
| 2026-04-28 23:46 | 29.11069 | 39.69491 | 32011 ft | 409 kts | 267° |
| 2026-04-28 23:46 | 29.11090 | 39.62983 | 32010 ft | 410 kts | 267° |
| 2026-04-28 23:47 | 29.11099 | 39.56472 | 32009 ft | 409 kts | 266° |
| 2026-04-28 23:47 | 29.11107 | 39.49961 | 32007 ft | 409 kts | 266° |
| 2026-04-28 23:48 | 29.11114 | 39.43448 | 32008 ft | 410 kts | 267° |
| 2026-04-28 23:48 | 29.11123 | 39.36932 | 32011 ft | 409 kts | 266° |
| 2026-04-28 23:49 | 29.11128 | 39.30423 | 32010 ft | 409 kts | 266° |
| 2026-04-28 23:49 | 29.11126 | 39.23914 | 32008 ft | 409 kts | 266° |
| 2026-04-28 23:50 | 29.11123 | 39.17414 | 32006 ft | 409 kts | 266° |
| 2026-04-28 23:50 | 29.11115 | 39.10917 | 31999 ft | 408 kts | 266° |
| 2026-04-28 23:51 | 29.11110 | 39.04429 | 31998 ft | 408 kts | 266° |
| 2026-04-28 23:51 | 29.11099 | 38.97935 | 31996 ft | 408 kts | 266° |
| 2026-04-28 23:52 | 29.11081 | 38.91446 | 31991 ft | 408 kts | 266° |
| 2026-04-28 23:52 | 29.11056 | 38.84945 | 31996 ft | 409 kts | 266° |
| 2026-04-28 23:53 | 29.11027 | 38.78444 | 31996 ft | 409 kts | 266° |
| 2026-04-28 23:53 | 29.10996 | 38.71987 | 31996 ft | 408 kts | 266° |
| 2026-04-28 23:54 | 29.10961 | 38.65490 | 31990 ft | 409 kts | 266° |
| 2026-04-28 23:54 | 29.10920 | 38.58984 | 31994 ft | 409 kts | 266° |
| 2026-04-28 23:55 | 29.10882 | 38.52479 | 31991 ft | 409 kts | 266° |
| 2026-04-28 23:55 | 29.10843 | 38.45970 | 31991 ft | 409 kts | 266° |
| 2026-04-28 23:56 | 29.10791 | 38.39462 | 31991 ft | 409 kts | 266° |
| 2026-04-28 23:56 | 29.10739 | 38.32949 | 31990 ft | 410 kts | 266° |
| 2026-04-28 23:57 | 29.10687 | 38.26436 | 31991 ft | 410 kts | 266° |
| 2026-04-28 23:57 | 29.10638 | 38.19918 | 31992 ft | 410 kts | 266° |
| 2026-04-28 23:58 | 29.10580 | 38.13399 | 31991 ft | 410 kts | 266° |
| 2026-04-28 23:58 | 29.10519 | 38.06878 | 31988 ft | 410 kts | 266° |
| 2026-04-28 23:59 | 29.10451 | 38.00353 | 31983 ft | 411 kts | 266° |
| 2026-04-28 23:59 | 29.10375 | 37.93818 | 31983 ft | 411 kts | 266° |
| 2026-04-29 00:00 | 29.10301 | 37.87286 | 31979 ft | 410 kts | 266° |
| 2026-04-29 00:00 | 29.10224 | 37.80766 | 31972 ft | 410 kts | 266° |
| 2026-04-29 00:01 | 29.10143 | 37.74242 | 31972 ft | 410 kts | 266° |
| 2026-04-29 00:01 | 29.10062 | 37.67715 | 31970 ft | 411 kts | 266° |
| 2026-04-29 00:02 | 29.09979 | 37.61183 | 31972 ft | 411 kts | 266° |
| 2026-04-29 00:02 | 29.09894 | 37.54650 | 31975 ft | 411 kts | 266° |
| 2026-04-29 00:03 | 29.09807 | 37.48128 | 31973 ft | 410 kts | 266° |
| 2026-04-29 00:03 | 29.09756 | 37.41598 | 31972 ft | 410 kts | 267° |
| 2026-04-29 00:04 | 29.09720 | 37.35114 | 31972 ft | 411 kts | 267° |
| 2026-04-29 00:04 | 29.09672 | 37.28589 | 31972 ft | 411 kts | 267° |
| 2026-04-29 00:05 | 29.09613 | 37.22055 | 31971 ft | 411 kts | 267° |
| 2026-04-29 00:05 | 29.09550 | 37.15524 | 31969 ft | 410 kts | 267° |
| 2026-04-29 00:06 | 29.09485 | 37.08991 | 31971 ft | 411 kts | 267° |
| 2026-04-29 00:06 | 29.09425 | 37.02453 | 31972 ft | 411 kts | 267° |
| 2026-04-29 00:07 | 29.09359 | 36.95920 | 31970 ft | 411 kts | 267° |
| 2026-04-29 00:07 | 29.09281 | 36.89385 | 31970 ft | 411 kts | 267° |
| 2026-04-29 00:08 | 29.09207 | 36.82851 | 31974 ft | 411 kts | 267° |
| 2026-04-29 00:08 | 29.09128 | 36.76324 | 31974 ft | 411 kts | 267° |
| 2026-04-29 00:09 | 29.09045 | 36.69792 | 31974 ft | 411 kts | 267° |
| 2026-04-29 00:09 | 29.08963 | 36.63313 | 31972 ft | 410 kts | 267° |
| 2026-04-29 00:10 | 29.08876 | 36.56787 | 31969 ft | 410 kts | 267° |
| 2026-04-29 00:10 | 29.08783 | 36.50268 | 31972 ft | 410 kts | 267° |
| 2026-04-29 00:11 | 29.08668 | 36.43747 | 31971 ft | 410 kts | 266° |
| 2026-04-29 00:12 | 29.08384 | 36.33980 | 31969 ft | 410 kts | 266° |
| 2026-04-29 00:12 | 29.08195 | 36.27473 | 31969 ft | 409 kts | 266° |
| 2026-04-29 00:13 | 29.08009 | 36.20966 | 31967 ft | 410 kts | 266° |
| 2026-04-29 00:13 | 29.07826 | 36.14459 | 31968 ft | 410 kts | 266° |
| 2026-04-29 00:14 | 29.07639 | 36.07951 | 31967 ft | 409 kts | 266° |
| 2026-04-29 00:14 | 29.07452 | 36.01498 | 31967 ft | 409 kts | 266° |
| 2026-04-29 00:15 | 29.07261 | 35.94998 | 31965 ft | 409 kts | 266° |
| 2026-04-29 00:15 | 29.07062 | 35.88490 | 31964 ft | 410 kts | 266° |
| 2026-04-29 00:16 | 29.06855 | 35.81972 | 31963 ft | 411 kts | 266° |
| 2026-04-29 00:16 | 29.06650 | 35.75445 | 31966 ft | 411 kts | 266° |
| 2026-04-29 00:17 | 29.06447 | 35.68907 | 31969 ft | 412 kts | 266° |
| 2026-04-29 00:17 | 29.06234 | 35.62368 | 31971 ft | 412 kts | 266° |
| 2026-04-29 00:18 | 29.06016 | 35.55828 | 31971 ft | 411 kts | 266° |
| 2026-04-29 00:18 | 29.05800 | 35.49291 | 31970 ft | 412 kts | 266° |
| 2026-04-29 00:19 | 29.05581 | 35.42755 | 31972 ft | 412 kts | 266° |
| 2026-04-29 00:19 | 29.05392 | 35.37318 | 31974 ft | 412 kts | 266° |
| 2026-04-29 00:20 | 29.05163 | 35.30776 | 31975 ft | 412 kts | 266° |
| 2026-04-29 00:20 | 29.04938 | 35.24234 | 31974 ft | 412 kts | 266° |
| 2026-04-29 00:21 | 29.04707 | 35.17688 | 31972 ft | 412 kts | 266° |
| 2026-04-29 00:21 | 29.04468 | 35.11148 | 31970 ft | 412 kts | 266° |
| 2026-04-29 00:22 | 29.04226 | 35.04610 | 31976 ft | 412 kts | 266° |
| 2026-04-29 00:22 | 29.03980 | 34.98076 | 31978 ft | 411 kts | 266° |
| 2026-04-29 00:23 | 29.03727 | 34.91541 | 31978 ft | 411 kts | 266° |
| 2026-04-29 00:23 | 29.03478 | 34.85015 | 31976 ft | 411 kts | 266° |
| 2026-04-29 00:24 | 29.03312 | 34.78537 | 31978 ft | 411 kts | 268° |
| 2026-04-29 00:24 | 29.03245 | 34.72016 | 31976 ft | 410 kts | 268° |
| 2026-04-29 00:25 | 29.03748 | 34.65526 | 31975 ft | 414 kts | 281° |
| 2026-04-29 00:25 | 29.05560 | 34.59250 | 31971 ft | 416 kts | 285° |
| 2026-04-29 00:26 | 29.07399 | 34.52971 | 31967 ft | 417 kts | 284° |
| 2026-04-29 00:26 | 29.09231 | 34.46675 | 31967 ft | 418 kts | 284° |
| 2026-04-29 00:27 | 29.11068 | 34.40375 | 31969 ft | 418 kts | 284° |
| 2026-04-29 00:27 | 29.12909 | 34.34079 | 31967 ft | 418 kts | 284° |
| 2026-04-29 00:28 | 29.14749 | 34.27778 | 31964 ft | 418 kts | 284° |
| 2026-04-29 00:28 | 29.16584 | 34.21476 | 31964 ft | 418 kts | 284° |
| 2026-04-29 00:29 | 29.18397 | 34.15215 | 31961 ft | 417 kts | 284° |
| 2026-04-29 00:29 | 29.20218 | 34.08913 | 31956 ft | 417 kts | 284° |
| 2026-04-29 00:30 | 29.22053 | 34.02566 | 31954 ft | 417 kts | 284° |
| 2026-04-29 00:30 | 29.23864 | 33.96299 | 31954 ft | 418 kts | 285° |
| 2026-04-29 00:31 | 29.25681 | 33.89987 | 31956 ft | 417 kts | 285° |
| 2026-04-29 00:31 | 29.27498 | 33.83674 | 31957 ft | 417 kts | 285° |
| 2026-04-29 00:32 | 29.29308 | 33.77367 | 31954 ft | 417 kts | 285° |
| 2026-04-29 00:32 | 29.31116 | 33.71069 | 31949 ft | 417 kts | 285° |
| 2026-04-29 00:33 | 29.32929 | 33.64744 | 31948 ft | 417 kts | 285° |
| 2026-04-29 00:33 | 29.34730 | 33.58437 | 31951 ft | 416 kts | 285° |
| 2026-04-29 00:34 | 29.36529 | 33.52130 | 31956 ft | 416 kts | 285° |
| 2026-04-29 00:34 | 29.38324 | 33.45824 | 31954 ft | 416 kts | 285° |
| 2026-04-29 00:35 | 29.40108 | 33.39517 | 31954 ft | 416 kts | 285° |
| 2026-04-29 00:35 | 29.41896 | 33.33208 | 31953 ft | 416 kts | 285° |
| 2026-04-29 00:36 | 29.43681 | 33.26898 | 31954 ft | 416 kts | 285° |
| 2026-04-29 00:36 | 29.45455 | 33.20586 | 31958 ft | 416 kts | 285° |
| 2026-04-29 00:37 | 29.47226 | 33.14274 | 31957 ft | 415 kts | 285° |
| 2026-04-29 00:37 | 29.48996 | 33.07963 | 31960 ft | 415 kts | 285° |
| 2026-04-29 00:38 | 29.50756 | 33.01651 | 31964 ft | 415 kts | 285° |
| 2026-04-29 00:38 | 29.52527 | 32.95339 | 31967 ft | 415 kts | 285° |
| 2026-04-29 00:39 | 29.54295 | 32.89032 | 31968 ft | 415 kts | 285° |
| 2026-04-29 00:39 | 29.56056 | 32.82715 | 31967 ft | 415 kts | 285° |
| 2026-04-29 00:40 | 29.57810 | 32.76400 | 31966 ft | 415 kts | 285° |
| 2026-04-29 00:40 | 29.59551 | 32.70125 | 31970 ft | 415 kts | 285° |
| 2026-04-29 00:41 | 29.61193 | 32.63767 | 31973 ft | 415 kts | 283° |
| 2026-04-29 00:41 | 29.62613 | 32.57344 | 31976 ft | 415 kts | 282° |
| 2026-04-29 00:42 | 29.64003 | 32.50907 | 31978 ft | 415 kts | 282° |
| 2026-04-29 00:42 | 29.65432 | 32.44487 | 31982 ft | 414 kts | 283° |
| 2026-04-29 00:43 | 29.66881 | 32.38108 | 32019 ft | 411 kts | 283° |
| 2026-04-29 00:43 | 29.67605 | 32.34925 | 31375 ft | 412 kts | 283° |
| 2026-04-29 00:43 | 29.68333 | 32.31707 | 30163 ft | 420 kts | 283° |
| 2026-04-29 00:43 | 29.69071 | 32.28425 | 28992 ft | 426 kts | 283° |
| 2026-04-29 00:44 | 29.69817 | 32.25105 | 27780 ft | 432 kts | 283° |
| 2026-04-29 00:44 | 29.70573 | 32.21732 | 26523 ft | 438 kts | 283° |
| 2026-04-29 00:44 | 29.71337 | 32.18320 | 25206 ft | 443 kts | 283° |
| 2026-04-29 00:44 | 29.72108 | 32.14862 | 23942 ft | 448 kts | 284° |
| 2026-04-29 00:45 | 29.72878 | 32.11410 | 23001 ft | 444 kts | 284° |
| 2026-04-29 00:45 | 29.73643 | 32.07984 | 22105 ft | 440 kts | 283° |
| 2026-04-29 00:45 | 29.74402 | 32.04588 | 21237 ft | 436 kts | 283° |
| 2026-04-29 00:45 | 29.75152 | 32.01225 | 20381 ft | 432 kts | 283° |
| 2026-04-29 00:46 | 29.75893 | 31.97886 | 19553 ft | 429 kts | 283° |
| 2026-04-29 00:46 | 29.76626 | 31.94571 | 18736 ft | 425 kts | 283° |
| 2026-04-29 00:46 | 29.77353 | 31.91291 | 17945 ft | 421 kts | 283° |
| 2026-04-29 00:46 | 29.77998 | 31.88018 | 17151 ft | 417 kts | 277° |
| 2026-04-29 00:47 | 29.78159 | 31.84704 | 16386 ft | 413 kts | 267° |
| 2026-04-29 00:47 | 29.77923 | 31.81428 | 15604 ft | 410 kts | 264° |
| 2026-04-29 00:47 | 29.77668 | 31.78170 | 14839 ft | 407 kts | 265° |
| 2026-04-29 00:47 | 29.77426 | 31.75013 | 13792 ft | 397 kts | 265° |
| 2026-04-29 00:48 | 29.77189 | 31.71873 | 12549 ft | 390 kts | 265° |
| 2026-04-29 00:48 | 29.76964 | 31.68864 | 12134 ft | 363 kts | 265° |
| 2026-04-29 00:48 | 29.76755 | 31.66093 | 11978 ft | 333 kts | 265° |
| 2026-04-29 00:48 | 29.76560 | 31.63542 | 11851 ft | 307 kts | 266° |
| 2026-04-29 00:49 | 29.76381 | 31.61177 | 11619 ft | 289 kts | 266° |
| 2026-04-29 00:49 | 29.76208 | 31.58898 | 11157 ft | 282 kts | 266° |
| 2026-04-29 00:49 | 29.76037 | 31.56646 | 11015 ft | 284 kts | 266° |
| 2026-04-29 00:49 | 29.75865 | 31.54367 | 10889 ft | 286 kts | 266° |
| 2026-04-29 00:50 | 29.75689 | 31.52092 | 10759 ft | 285 kts | 266° |
| 2026-04-29 00:50 | 29.75508 | 31.49817 | 10632 ft | 285 kts | 266° |
| 2026-04-29 00:50 | 29.75330 | 31.47545 | 10503 ft | 285 kts | 266° |
| 2026-04-29 00:50 | 29.75153 | 31.45275 | 10374 ft | 285 kts | 266° |
| 2026-04-29 00:51 | 29.74976 | 31.43008 | 10248 ft | 284 kts | 266° |
| 2026-04-29 00:51 | 29.74800 | 31.40743 | 10121 ft | 284 kts | 266° |
| 2026-04-29 00:51 | 29.74622 | 31.38479 | 9992 ft | 284 kts | 266° |
| 2026-04-29 00:51 | 29.74440 | 31.36201 | 9586 ft | 287 kts | 266° |
| 2026-04-29 00:52 | 29.74259 | 31.33915 | 9209 ft | 285 kts | 268° |
| 2026-04-29 00:52 | 29.74389 | 31.31696 | 8901 ft | 278 kts | 287° |
| 2026-04-29 00:52 | 29.75304 | 31.29765 | 8536 ft | 273 kts | 313° |
| 2026-04-29 00:52 | 29.76787 | 31.28473 | 8261 ft | 267 kts | 335° |
| 2026-04-29 00:53 | 29.78552 | 31.27848 | 7876 ft | 266 kts | 345° |
| 2026-04-29 00:53 | 29.80345 | 31.27331 | 7484 ft | 265 kts | 345° |
| 2026-04-29 00:53 | 29.82129 | 31.26817 | 7115 ft | 264 kts | 345° |
| 2026-04-29 00:53 | 29.83904 | 31.26308 | 6748 ft | 262 kts | 345° |
| 2026-04-29 00:54 | 29.85666 | 31.25803 | 6369 ft | 260 kts | 345° |
| 2026-04-29 00:54 | 29.87414 | 31.25300 | 5996 ft | 258 kts | 345° |
| 2026-04-29 00:54 | 29.89151 | 31.24797 | 5620 ft | 257 kts | 345° |
| 2026-04-29 00:54 | 29.90892 | 31.24292 | 5040 ft | 262 kts | 345° |
| 2026-04-29 00:55 | 29.92677 | 31.23774 | 4531 ft | 265 kts | 345° |
| 2026-04-29 00:55 | 29.94455 | 31.23256 | 4142 ft | 263 kts | 346° |
| 2026-04-29 00:55 | 29.96200 | 31.22752 | 3723 ft | 261 kts | 346° |
| 2026-04-29 00:55 | 29.97964 | 31.22280 | 3319 ft | 259 kts | 352° |
| 2026-04-29 00:56 | 29.99723 | 31.22425 | 3007 ft | 253 kts | 19° |
| 2026-04-29 00:56 | 30.01176 | 31.23487 | 2757 ft | 245 kts | 46° |
| 2026-04-29 00:56 | 30.02247 | 31.24952 | 2672 ft | 232 kts | 50° |
| 2026-04-29 00:56 | 30.03253 | 31.26337 | 2589 ft | 219 kts | 49° |
| 2026-04-29 00:57 | 30.04225 | 31.27643 | 2508 ft | 211 kts | 49° |
| 2026-04-29 00:57 | 30.05161 | 31.28903 | 2336 ft | 202 kts | 49° |
| 2026-04-29 00:57 | 30.06043 | 31.30081 | 2065 ft | 188 kts | 49° |
| 2026-04-29 00:57 | 30.06871 | 31.31194 | 1781 ft | 175 kts | 49° |
| 2026-04-29 00:58 | 30.07646 | 31.32234 | 1482 ft | 167 kts | 49° |
| 2026-04-29 00:58 | 30.08387 | 31.33221 | 1260 ft | 159 kts | 49° |
| 2026-04-29 00:58 | 30.09094 | 31.34162 | 1035 ft | 152 kts | 50° |
| 2026-04-29 00:58 | 30.09776 | 31.35080 | 850 ft | 150 kts | 50° |
| 2026-04-29 00:59 | 30.10444 | 31.35994 | 710 ft | 148 kts | 50° |
| 2026-04-29 00:59 | 30.11124 | 31.36889 | 581 ft | 148 kts | 49° |
| 2026-04-29 00:59 | 30.11793 | 31.37789 | 463 ft | 148 kts | 50° |
| 2026-04-29 00:59 | 30.12454 | 31.38677 | 380 ft | 139 kts | 49° |
| 2026-04-29 01:00 | 30.13010 | 31.39423 | 375 ft | 100 kts | 49° |
| 2026-04-29 01:00 | 30.13351 | 31.39879 | 370 ft | 50 kts | 49° |
| 2026-04-29 01:00 | 30.13461 | 31.40066 | 370 ft | 20 kts | 72° |
| 2026-04-29 01:00 | 30.13482 | 31.40217 | 375 ft | 17 kts | 78° |
| 2026-04-29 01:01 | 30.13435 | 31.40280 | 375 ft | 13 kts | 198° |
| 2026-04-29 01:01 | 30.13372 | 31.40217 | 374 ft | 11 kts | 228° |
| 2026-04-29 01:01 | 30.13322 | 31.40155 | 374 ft | 10 kts | 224° |
| 2026-04-29 01:01 | 30.13265 | 31.40133 | 374 ft | 8 kts | 172° |
| 2026-04-29 01:02 | 30.13223 | 31.40167 | 374 ft | 7 kts | 136° |
| 2026-04-29 01:02 | 30.13184 | 31.40210 | 374 ft | 11 kts | 136° |
| 2026-04-29 01:02 | 30.13126 | 31.40268 | 374 ft | 10 kts | 157° |
| 2026-04-29 01:02 | 30.13062 | 31.40260 | 374 ft | 8 kts | 194° |
| 2026-04-29 01:03 | 30.13040 | 31.40254 | 374 ft | 0 kts | 193° |